Time;durP1;ratioP1;P1;durP2;ratioP2;P2;SDS_P1;SDS_P2;PMS_P1;PMS_P2;Temp;Humidity;BMP_temperature;BMP_pressure;BME280_temperature;BME280_humidity;BME280_pressure;Samples;Min_cycle;Max_cycle;Signal;HPM_P1;HPM_P2
2022/12/05 00:02:03;;;;;;;4.35;3.95;;;;;;;;;;4998366;28;20022;-26
2022/12/05 00:04:29;;;;;;;4.40;4.00;;;;;;;;;;4998258;28;20057;-26
2022/12/05 00:06:55;;;;;;;4.13;3.83;;;;;;;;;;4998562;28;20399;-26
2022/12/05 00:09:21;;;;;;;4.35;4.03;;;;;;;;;;4998263;28;20034;-26
2022/12/05 00:11:47;;;;;;;4.53;4.13;;;;;;;;;;4998966;28;20117;-26
2022/12/05 00:14:14;;;;;;;4.93;4.50;;;;;;;;;;4998634;28;20027;-26
2022/12/05 00:16:41;;;;;;;4.13;3.83;;;;;;;;;;4998009;28;20117;-26
2022/12/05 00:19:08;;;;;;;4.10;3.80;;;;;;;;;;4998053;28;20092;-26
2022/12/05 00:21:35;;;;;;;4.22;3.92;;;;;;;;;;4998016;28;20413;-27
2022/12/05 00:24:02;;;;;;;4.38;4.05;;;;;;;;;;4997013;28;20113;-26
2022/12/05 00:26:29;;;;;;;4.07;3.78;;;;;;;;;;4997907;28;20027;-26
2022/12/05 00:28:57;;;;;;;4.95;4.55;;;;;;;;;;4997928;28;20026;-26
2022/12/05 00:31:24;;;;;;;4.10;3.80;;;;;;;;;;4998383;28;20034;-26
2022/12/05 00:33:51;;;;;;;4.93;4.50;;;;;;;;;;4998037;28;20184;-26
2022/12/05 00:36:19;;;;;;;4.82;4.43;;;;;;;;;;4997694;28;20462;-26
2022/12/05 00:38:45;;;;;;;4.70;4.30;;;;;;;;;;4998257;28;20022;-26
2022/12/05 00:41:12;;;;;;;4.72;4.32;;;;;;;;;;4997976;28;20053;-26
2022/12/05 00:43:39;;;;;;;4.07;3.78;;;;;;;;;;4997674;28;20370;-26
2022/12/05 00:46:07;;;;;;;4.82;4.43;;;;;;;;;;4997594;28;20354;-26
2022/12/05 00:48:33;;;;;;;4.38;4.00;;;;;;;;;;4997836;28;20105;-26
2022/12/05 00:51:02;;;;;;;4.45;4.05;;;;;;;;;;4998054;28;20446;-26
2022/12/05 00:53:28;;;;;;;4.47;4.18;;;;;;;;;;4997364;28;20030;-26
2022/12/05 00:55:54;;;;;;;4.13;3.80;;;;;;;;;;4997609;28;20101;-26
2022/12/05 00:58:21;;;;;;;4.22;3.92;;;;;;;;;;4997357;28;20026;-26
2022/12/05 01:00:47;;;;;;;4.70;4.30;;;;;;;;;;4997289;28;20038;-26
2022/12/05 01:03:13;;;;;;;3.65;3.38;;;;;;;;;;4997192;28;20022;-26
2022/12/05 01:05:39;;;;;;;4.90;4.50;;;;;;;;;;4997272;28;20069;-26
2022/12/05 01:08:05;;;;;;;5.53;5.03;;;;;;;;;;4997190;28;20445;-27
2022/12/05 01:10:31;;;;;;;3.08;2.88;;;;;;;;;;4997155;28;20034;-26
2022/12/05 01:12:58;;;;;;;4.05;3.63;;;;;;;;;;4997055;28;20026;-26
2022/12/05 01:15:24;;;;;;;4.32;3.92;;;;;;;;;;4997244;28;20038;-26
2022/12/05 01:17:50;;;;;;;3.97;3.67;;;;;;;;;;4996956;28;20450;-26
2022/12/05 01:20:16;;;;;;;4.78;4.40;;;;;;;;;;4996974;28;20022;-26
2022/12/05 01:22:43;;;;;;;4.55;4.20;;;;;;;;;;4996893;28;20027;-26
2022/12/05 01:25:09;;;;;;;3.78;3.47;;;;;;;;;;4996932;28;20088;-26
2022/12/05 01:27:35;;;;;;;4.22;3.83;;;;;;;;;;4996830;28;20045;-26
2022/12/05 01:30:01;;;;;;;4.22;3.92;;;;;;;;;;4997087;28;20108;-26
2022/12/05 01:32:27;;;;;;;3.80;3.50;;;;;;;;;;4996677;28;20031;-26
2022/12/05 01:34:54;;;;;;;4.38;4.07;;;;;;;;;;4996914;28;20343;-26
2022/12/05 01:37:20;;;;;;;5.47;5.07;;;;;;;;;;4996588;28;20114;-26
2022/12/05 01:39:48;;;;;;;4.22;3.92;;;;;;;;;;4996579;28;20454;-26
2022/12/05 01:42:14;;;;;;;5.05;4.35;;;;;;;;;;4996520;28;20357;-26
2022/12/05 01:44:43;;;;;;;4.00;3.70;;;;;;;;;;4996522;28;20464;-26
2022/12/05 01:47:09;;;;;;;4.20;3.90;;;;;;;;;;4997004;28;20037;-26
2022/12/05 01:49:37;;;;;;;4.25;3.92;;;;;;;;;;4996944;28;20319;-26
2022/12/05 01:52:09;;;;;;;4.80;4.50;;;;;;;;;;4996350;28;20132;-26
2022/12/05 01:54:36;;;;;;;4.88;4.38;;;;;;;;;;4996620;28;20046;-26
2022/12/05 01:57:05;;;;;;;4.40;4.00;;;;;;;;;;4996289;28;20041;-27
2022/12/05 01:59:33;;;;;;;4.75;4.35;;;;;;;;;;4996201;28;20024;-26
2022/12/05 02:01:59;;;;;;;4.82;4.35;;;;;;;;;;4996398;28;20466;-26
2022/12/05 02:04:26;;;;;;;4.18;3.88;;;;;;;;;;4995939;28;20375;-26
2022/12/05 02:06:53;;;;;;;5.05;4.22;;;;;;;;;;4996109;28;20030;-26
2022/12/05 02:09:19;;;;;;;4.50;4.13;;;;;;;;;;4996550;28;20041;-26
2022/12/05 02:11:53;;;;;;;4.72;4.32;;;;;;;;;;4995963;28;20065;-26
2022/12/05 02:14:35;;;;;;;4.55;4.05;;;;;;;;;;4995477;28;20503;-26
2022/12/05 02:17:01;;;;;;;3.88;3.58;;;;;;;;;;4995931;28;20038;-26
2022/12/05 02:19:36;;;;;;;4.35;4.05;;;;;;;;;;4995890;28;20122;-26
2022/12/05 02:22:15;;;;;;;3.65;3.35;;;;;;;;;;4995818;28;20028;-26
2022/12/05 02:24:41;;;;;;;3.78;3.40;;;;;;;;;;4995795;28;20076;-26
2022/12/05 02:27:21;;;;;;;4.50;4.10;;;;;;;;;;4995999;28;20038;-27
2022/12/05 02:29:57;;;;;;;4.75;4.35;;;;;;;;;;4996282;28;20050;-26
2022/12/05 02:32:23;;;;;;;3.58;3.28;;;;;;;;;;4995868;28;20362;-26
2022/12/05 02:34:59;;;;;;;4.03;3.65;;;;;;;;;;4995574;28;20080;-26
2022/12/05 02:37:48;;;;;;;3.83;3.53;;;;;;;;;;4995585;28;20030;-26
2022/12/05 02:40:14;;;;;;;4.40;4.00;;;;;;;;;;4996270;28;20481;-26
2022/12/05 02:42:40;;;;;;;4.38;3.88;;;;;;;;;;4995467;28;20022;-26
2022/12/05 02:45:12;;;;;;;4.78;4.20;;;;;;;;;;4995425;28;20048;-26
2022/12/05 02:47:43;;;;;;;4.88;4.25;;;;;;;;;;4995560;28;20113;-26
2022/12/05 02:50:11;;;;;;;4.13;3.83;;;;;;;;;;4996019;28;20052;-26
2022/12/05 02:52:37;;;;;;;4.13;3.75;;;;;;;;;;4995559;28;20081;-26
2022/12/05 02:55:04;;;;;;;4.60;4.20;;;;;;;;;;4995283;28;20034;-26
2022/12/05 02:57:30;;;;;;;4.45;4.07;;;;;;;;;;4994744;28;20026;-27
2022/12/05 02:59:56;;;;;;;3.70;3.40;;;;;;;;;;4995342;28;20031;-26
2022/12/05 03:02:23;;;;;;;4.22;3.90;;;;;;;;;;4995196;28;20026;-26
2022/12/05 03:04:49;;;;;;;4.55;4.15;;;;;;;;;;4995130;28;20043;-26
2022/12/05 03:07:16;;;;;;;4.28;3.97;;;;;;;;;;4995490;28;20365;-27
2022/12/05 03:09:47;;;;;;;4.57;4.18;;;;;;;;;;4995476;28;20045;-26
2022/12/05 03:12:26;;;;;;;5.07;4.60;;;;;;;;;;4995178;28;20025;-26
2022/12/05 03:14:58;;;;;;;4.63;4.22;;;;;;;;;;4995108;28;20026;-27
2022/12/05 03:17:25;;;;;;;4.10;3.80;;;;;;;;;;4995121;28;20030;-26
2022/12/05 03:20:03;;;;;;;4.00;3.45;;;;;;;;;;4995436;28;20033;-26
2022/12/05 03:22:30;;;;;;;4.18;3.78;;;;;;;;;;4995319;28;20382;-26
2022/12/05 03:24:56;;;;;;;4.53;4.18;;;;;;;;;;4995376;28;20026;-26
2022/12/05 03:27:27;;;;;;;3.85;3.55;;;;;;;;;;4998621;28;20027;-26
2022/12/05 03:29:56;;;;;;;4.53;4.13;;;;;;;;;;4999332;28;20023;-26
2022/12/05 03:32:28;;;;;;;4.20;3.90;;;;;;;;;;4999181;28;20034;-27
2022/12/05 03:35:13;;;;;;;4.38;3.97;;;;;;;;;;4998862;28;20030;-26
2022/12/05 03:37:58;;;;;;;4.50;4.20;;;;;;;;;;4999395;28;20022;-26
2022/12/05 03:40:37;;;;;;;4.43;4.03;;;;;;;;;;4999333;28;20054;-26
2022/12/05 03:43:07;;;;;;;4.00;3.70;;;;;;;;;;4998744;28;20022;-26
2022/12/05 03:45:52;;;;;;;4.13;3.73;;;;;;;;;;4998710;28;20058;-26
2022/12/05 03:48:21;;;;;;;4.28;3.88;;;;;;;;;;4999475;28;20041;-26
2022/12/05 03:50:49;;;;;;;4.45;4.15;;;;;;;;;;4998876;28;20112;-26
2022/12/05 03:53:27;;;;;;;4.50;4.10;;;;;;;;;;4998778;28;20074;-26
2022/12/05 03:56:05;;;;;;;4.57;4.18;;;;;;;;;;4998730;28;20034;-26
2022/12/05 03:58:36;;;;;;;4.38;4.00;;;;;;;;;;4999044;28;20101;-26
2022/12/05 04:01:05;;;;;;;4.13;3.72;;;;;;;;;;4999015;28;20088;-26
2022/12/05 04:03:52;;;;;;;4.15;3.85;;;;;;;;;;4998340;28;20034;-26
2022/12/05 04:06:23;;;;;;;4.13;3.83;;;;;;;;;;4998368;28;20046;-26
2022/12/05 04:09:10;;;;;;;5.57;4.13;;;;;;;;;;4998360;28;20041;-26
2022/12/05 04:11:39;;;;;;;4.30;3.97;;;;;;;;;;4998472;28;20463;-26
2022/12/05 04:14:11;;;;;;;4.88;4.47;;;;;;;;;;4998202;28;20026;-26
2022/12/05 04:17:02;;;;;;;4.00;3.70;;;;;;;;;;4998375;28;20038;-26
2022/12/05 04:21:36;;;;;;;4.35;3.97;;;;;;;;;;4998684;28;20381;-26
2022/12/05 04:22:18;;;;;;;4.43;4.03;;;;;;;;;;4997964;28;20034;-26
2022/12/05 04:27:29;;;;;;;4.25;3.85;;;;;;;;;;4998284;28;20437;-26
2022/12/05 04:30:04;;;;;;;3.83;3.53;;;;;;;;;;4997985;28;20031;-26
2022/12/05 04:32:37;;;;;;;4.00;3.70;;;;;;;;;;4996898;28;20030;-26
2022/12/05 04:35:05;;;;;;;4.32;4.03;;;;;;;;;;4998342;28;20034;-26
2022/12/05 04:37:33;;;;;;;4.47;4.07;;;;;;;;;;4997288;28;20046;-26
2022/12/05 04:40:03;;;;;;;4.00;3.67;;;;;;;;;;4998294;28;20022;-27
2022/12/05 04:42:31;;;;;;;4.22;3.92;;;;;;;;;;4997652;28;20161;-26
2022/12/05 04:45:03;;;;;;;4.95;4.50;;;;;;;;;;4997937;28;20022;-26
2022/12/05 04:47:32;;;;;;;4.00;3.63;;;;;;;;;;4997592;28;20030;-27
2022/12/05 04:49:59;;;;;;;4.15;3.85;;;;;;;;;;4997788;28;20353;-26
2022/12/05 04:52:27;;;;;;;4.20;3.90;;;;;;;;;;4997869;28;20034;-26
2022/12/05 04:54:56;;;;;;;3.88;3.58;;;;;;;;;;4997616;28;20026;-26
2022/12/05 04:57:25;;;;;;;3.85;3.55;;;;;;;;;;4997367;28;20361;-26
2022/12/05 04:59:51;;;;;;;4.03;3.72;;;;;;;;;;4997299;28;20018;-27
2022/12/05 05:02:21;;;;;;;3.92;3.63;;;;;;;;;;4997397;28;20022;-26
2022/12/05 05:04:49;;;;;;;4.65;4.25;;;;;;;;;;4997027;28;20137;-26
2022/12/05 05:07:16;;;;;;;4.05;3.63;;;;;;;;;;4997095;28;20038;-26
2022/12/05 05:09:43;;;;;;;3.80;3.50;;;;;;;;;;4996164;28;20027;-27
2022/12/05 05:12:10;;;;;;;4.35;3.97;;;;;;;;;;4997187;28;20022;-27
2022/12/05 05:14:36;;;;;;;3.97;3.58;;;;;;;;;;4997100;28;20022;-27
2022/12/05 05:17:02;;;;;;;4.03;3.70;;;;;;;;;;4996748;28;20037;-27
2022/12/05 05:19:29;;;;;;;3.95;3.65;;;;;;;;;;4996701;28;20476;-26
2022/12/05 05:21:55;;;;;;;4.45;3.50;;;;;;;;;;4996757;28;20026;-27
2022/12/05 05:24:22;;;;;;;4.65;4.25;;;;;;;;;;4996724;28;20113;-27
2022/12/05 05:26:49;;;;;;;5.10;3.92;;;;;;;;;;4996576;28;20034;-27
2022/12/05 05:29:15;;;;;;;4.13;3.67;;;;;;;;;;4996778;28;20030;-27
2022/12/05 05:31:42;;;;;;;4.97;3.58;;;;;;;;;;4996408;28;20054;-28
2022/12/05 05:34:08;;;;;;;3.97;3.60;;;;;;;;;;4996370;28;20454;-26
2022/12/05 05:36:35;;;;;;;4.20;3.90;;;;;;;;;;4996605;28;20077;-27
2022/12/05 05:39:02;;;;;;;3.65;3.35;;;;;;;;;;4996697;28;20023;-27
2022/12/05 05:41:29;;;;;;;4.38;3.80;;;;;;;;;;4996388;28;20034;-28
2022/12/05 05:43:55;;;;;;;4.32;3.92;;;;;;;;;;4996443;28;20034;-27
2022/12/05 05:46:23;;;;;;;4.30;3.90;;;;;;;;;;4996430;28;20030;-27
2022/12/05 05:48:49;;;;;;;4.60;3.72;;;;;;;;;;4995596;28;20037;-27
2022/12/05 05:51:16;;;;;;;3.63;3.33;;;;;;;;;;4996389;28;20061;-28
2022/12/05 05:53:42;;;;;;;4.25;3.80;;;;;;;;;;4995997;28;20057;-28
2022/12/05 05:56:10;;;;;;;10.93;4.32;;;;;;;;;;4995043;28;20038;-27
2022/12/05 05:58:36;;;;;;;6.30;3.90;;;;;;;;;;4996132;28;20054;-27
2022/12/05 06:03:39;;;;;;;4.55;3.90;;;;;;;;;;5233457;23;20046;-29
2022/12/05 06:06:07;;;;;;;4.28;3.97;;;;;;;;;;5015862;28;20026;-29
2022/12/05 06:08:34;;;;;;;6.07;3.70;;;;;;;;;;5015475;28;20131;-29
2022/12/05 06:11:04;;;;;;;4.05;3.75;;;;;;;;;;5015507;28;20516;-29
2022/12/05 06:13:30;;;;;;;4.63;4.10;;;;;;;;;;5015816;28;20053;-29
2022/12/05 06:15:56;;;;;;;4.22;3.85;;;;;;;;;;5015439;28;20372;-28
2022/12/05 06:18:22;;;;;;;5.00;3.90;;;;;;;;;;5015481;28;20117;-28
2022/12/05 06:20:52;;;;;;;7.78;4.07;;;;;;;;;;5015423;28;20048;-28
2022/12/05 06:23:19;;;;;;;5.45;3.90;;;;;;;;;;5015560;28;20049;-29
2022/12/05 06:25:48;;;;;;;12.23;3.75;;;;;;;;;;5015371;28;20037;-28
2022/12/05 06:28:15;;;;;;;3.50;3.20;;;;;;;;;;5015334;28;20047;-29
2022/12/05 06:30:41;;;;;;;3.85;3.55;;;;;;;;;;5015397;28;20092;-29
2022/12/05 06:33:07;;;;;;;4.30;3.45;;;;;;;;;;5014994;28;20044;-29
2022/12/05 06:35:33;;;;;;;4.72;4.05;;;;;;;;;;5015205;28;20029;-29
2022/12/05 06:37:59;;;;;;;7.35;4.05;;;;;;;;;;5015001;28;20417;-29
2022/12/05 06:40:26;;;;;;;7.00;4.00;;;;;;;;;;5014894;28;20384;-29
2022/12/05 06:42:52;;;;;;;4.43;4.03;;;;;;;;;;5014798;28;20036;-29
2022/12/05 06:45:18;;;;;;;6.82;5.40;;;;;;;;;;5015133;28;20037;-28
2022/12/05 06:47:44;;;;;;;4.68;3.92;;;;;;;;;;5015081;28;20104;-29
2022/12/05 06:50:11;;;;;;;4.32;3.92;;;;;;;;;;5014711;28;20127;-29
2022/12/05 06:52:37;;;;;;;3.92;3.53;;;;;;;;;;4997786;28;20123;-29
2022/12/05 06:55:03;;;;;;;4.60;4.20;;;;;;;;;;5014773;28;20042;-29
2022/12/05 06:57:30;;;;;;;5.50;4.28;;;;;;;;;;5014558;28;20029;-29
2022/12/05 07:02:41;;;;;;;5.78;3.35;;;;;;;;;;5014132;28;20143;-29
2022/12/05 07:05:08;;;;;;;4.60;3.67;;;;;;;;;;5014897;28;20033;-28
2022/12/05 07:07:35;;;;;;;8.63;5.20;;;;;;;;;;4996969;28;20030;-29
2022/12/05 07:10:01;;;;;;;10.18;4.88;;;;;;;;;;5014241;28;20034;-29
2022/12/05 07:12:27;;;;;;;7.25;3.70;;;;;;;;;;5014531;28;20029;-30
2022/12/05 07:14:53;;;;;;;7.47;4.47;;;;;;;;;;5014175;28;20444;-29
2022/12/05 07:17:20;;;;;;;3.45;3.15;;;;;;;;;;5014812;28;20068;-28
2022/12/05 07:19:48;;;;;;;7.82;3.88;;;;;;;;;;4997022;28;20030;-29
2022/12/05 07:22:14;;;;;;;6.13;4.07;;;;;;;;;;5014181;28;20080;-29
2022/12/05 07:24:40;;;;;;;5.18;4.03;;;;;;;;;;4997063;28;20030;-29
2022/12/05 07:27:06;;;;;;;5.32;3.97;;;;;;;;;;5014206;28;20033;-29
2022/12/05 07:29:32;;;;;;;4.75;4.25;;;;;;;;;;5014182;28;20068;-28
2022/12/05 07:31:59;;;;;;;6.57;3.92;;;;;;;;;;5014915;28;20034;-29
2022/12/05 07:34:25;;;;;;;9.98;3.78;;;;;;;;;;5014242;28;20026;-29
2022/12/05 07:36:51;;;;;;;4.22;3.78;;;;;;;;;;5013959;28;20049;-29
2022/12/05 07:39:17;;;;;;;5.25;3.83;;;;;;;;;;4996901;28;20113;-29
2022/12/05 07:41:43;;;;;;;11.60;4.00;;;;;;;;;;5013844;28;20113;-29
2022/12/05 07:44:10;;;;;;;11.45;4.28;;;;;;;;;;5014165;28;20376;-29
2022/12/05 07:46:37;;;;;;;11.55;4.32;;;;;;;;;;5013895;28;20036;-29
2022/12/05 07:49:03;;;;;;;5.07;4.22;;;;;;;;;;5014235;28;20045;-29
2022/12/05 07:51:29;;;;;;;10.52;3.95;;;;;;;;;;5014362;28;20025;-28
2022/12/05 07:53:56;;;;;;;6.55;4.55;;;;;;;;;;4996689;28;20419;-29
2022/12/05 07:56:22;;;;;;;10.55;4.38;;;;;;;;;;4996670;28;20045;-29
2022/12/05 07:58:49;;;;;;;12.27;6.53;;;;;;;;;;4996829;28;20030;-29
2022/12/05 08:01:19;;;;;;;6.05;4.88;;;;;;;;;;5013966;28;20096;-29
2022/12/05 08:03:45;;;;;;;11.88;4.10;;;;;;;;;;4996506;28;20487;-29
2022/12/05 08:06:13;;;;;;;12.65;4.57;;;;;;;;;;5013950;28;20029;-29
2022/12/05 08:08:39;;;;;;;13.18;6.35;;;;;;;;;;4996649;28;20049;-29
2022/12/05 08:11:07;;;;;;;8.35;4.40;;;;;;;;;;5013948;28;20060;-29
2022/12/05 08:13:33;;;;;;;10.85;4.25;;;;;;;;;;5017191;28;20041;-29
2022/12/05 08:16:01;;;;;;;5.80;4.07;;;;;;;;;;5017685;28;20053;-28
2022/12/05 08:18:27;;;;;;;10.25;3.80;;;;;;;;;;5017456;28;20018;-29
2022/12/05 08:20:53;;;;;;;11.93;4.15;;;;;;;;;;5017499;28;20430;-29
2022/12/05 08:23:19;;;;;;;9.85;4.03;;;;;;;;;;5017620;28;20109;-28
2022/12/05 08:25:46;;;;;;;5.55;3.67;;;;;;;;;;5017276;28;20364;-29
2022/12/05 08:28:12;;;;;;;13.20;4.13;;;;;;;;;;5017489;28;20124;-29
2022/12/05 08:30:38;;;;;;;8.73;4.18;;;;;;;;;;5016998;28;20034;-29
2022/12/05 08:33:04;;;;;;;6.72;3.95;;;;;;;;;;5017116;28;20101;-29
2022/12/05 08:35:30;;;;;;;6.82;4.18;;;;;;;;;;4999554;28;20042;-29
2022/12/05 08:37:56;;;;;;;6.88;4.85;;;;;;;;;;5017070;28;20124;-28
2022/12/05 08:40:22;;;;;;;13.63;4.15;;;;;;;;;;5016989;28;20026;-29
2022/12/05 08:42:49;;;;;;;11.45;3.88;;;;;;;;;;5017051;28;20121;-28
2022/12/05 08:45:15;;;;;;;7.35;4.47;;;;;;;;;;4999689;28;20342;-29
2022/12/05 08:47:41;;;;;;;6.80;4.07;;;;;;;;;;5000104;28;20402;-29
2022/12/05 08:50:07;;;;;;;14.48;4.13;;;;;;;;;;4999631;28;20100;-30
2022/12/05 08:52:33;;;;;;;11.95;4.45;;;;;;;;;;4983495;28;20045;-30
2022/12/05 08:55:00;;;;;;;11.23;4.07;;;;;;;;;;5016825;28;20025;-30
2022/12/05 08:57:26;;;;;;;11.20;4.38;;;;;;;;;;5016817;28;20437;-29
2022/12/05 08:59:52;;;;;;;14.75;4.30;;;;;;;;;;5016777;28;20093;-29
2022/12/05 09:02:18;;;;;;;15.30;4.35;;;;;;;;;;5016589;28;20022;-29
2022/12/05 09:04:44;;;;;;;11.25;4.50;;;;;;;;;;5016826;28;20022;-29
2022/12/05 09:07:10;;;;;;;12.52;5.53;;;;;;;;;;5016491;28;20033;-30
2022/12/05 09:09:37;;;;;;;14.23;4.63;;;;;;;;;;5016867;28;20029;-30
2022/12/05 09:12:03;;;;;;;16.02;4.65;;;;;;;;;;5016466;28;20037;-29
2022/12/05 09:14:31;;;;;;;12.23;4.72;;;;;;;;;;5016629;28;20088;-29
2022/12/05 09:16:58;;;;;;;10.43;4.20;;;;;;;;;;5016040;28;20033;-30
2022/12/05 09:19:26;;;;;;;11.38;4.55;;;;;;;;;;5016736;28;20364;-30
2022/12/05 09:21:52;;;;;;;11.45;4.57;;;;;;;;;;5015815;28;20026;-29
2022/12/05 09:24:19;;;;;;;13.48;4.82;;;;;;;;;;4997746;28;20512;-28
2022/12/05 09:26:45;;;;;;;24.40;5.07;;;;;;;;;;5016152;28;20029;-29
2022/12/05 09:29:12;;;;;;;15.27;4.28;;;;;;;;;;5016120;28;20037;-29
2022/12/05 09:31:41;;;;;;;21.75;5.25;;;;;;;;;;5016187;28;20037;-29
2022/12/05 09:34:08;;;;;;;26.20;6.68;;;;;;;;;;5015914;28;20041;-30
2022/12/05 09:36:34;;;;;;;14.05;5.07;;;;;;;;;;5016103;28;20468;-29
2022/12/05 09:39:02;;;;;;;11.93;3.97;;;;;;;;;;4998746;28;20033;-29
2022/12/05 09:44:48;;;;;;;20.63;5.57;;;;;;;;;;5016455;28;20041;-29
2022/12/05 09:47:18;;;;;;;9.10;4.47;;;;;;;;;;5016399;28;20103;-29
2022/12/05 09:49:50;;;;;;;11.00;4.18;;;;;;;;;;5016009;28;20093;-29
2022/12/05 09:52:37;;;;;;;17.75;5.57;;;;;;;;;;4998825;28;20037;-29
2022/12/05 09:55:06;;;;;;;13.82;4.72;;;;;;;;;;5015721;28;20041;-29
2022/12/05 09:57:34;;;;;;;17.90;4.60;;;;;;;;;;5015835;28;20456;-29
2022/12/05 10:00:02;;;;;;;14.65;5.10;;;;;;;;;;5015819;28;20026;-28
2022/12/05 10:02:39;;;;;;;6.10;4.05;;;;;;;;;;5015505;28;20103;-30
2022/12/05 10:05:10;;;;;;;6.20;4.78;;;;;;;;;;5015754;28;20026;-29
2022/12/05 10:07:40;;;;;;;17.13;4.90;;;;;;;;;;5015743;28;20364;-28
2022/12/05 10:10:07;;;;;;;7.80;4.63;;;;;;;;;;5015598;28;20083;-29
2022/12/05 10:12:51;;;;;;;14.02;4.95;;;;;;;;;;5015718;28;20109;-30
2022/12/05 10:15:22;;;;;;;14.82;4.60;;;;;;;;;;5015795;28;20030;-29
2022/12/05 10:17:52;;;;;;;13.48;4.13;;;;;;;;;;5015750;28;20018;-29
2022/12/05 10:20:21;;;;;;;18.15;4.93;;;;;;;;;;5015323;28;20018;-29
2022/12/05 10:22:48;;;;;;;11.07;4.40;;;;;;;;;;5015074;28;20026;-30
2022/12/05 10:25:17;;;;;;;9.77;4.47;;;;;;;;;;5015558;28;20457;-30
2022/12/05 10:27:47;;;;;;;13.40;6.10;;;;;;;;;;5015204;28;20041;-29
2022/12/05 10:30:18;;;;;;;11.00;4.63;;;;;;;;;;5015286;28;20311;-29
2022/12/05 10:32:53;;;;;;;12.65;4.47;;;;;;;;;;5015019;28;20041;-29
2022/12/05 10:35:19;;;;;;;19.83;4.60;;;;;;;;;;5014653;28;20042;-29
2022/12/05 10:37:49;;;;;;;8.60;4.65;;;;;;;;;;5015243;28;20357;-34
2022/12/05 10:40:16;;;;;;;11.38;5.57;;;;;;;;;;5014888;28;20030;-29
2022/12/05 10:42:43;;;;;;;8.60;4.72;;;;;;;;;;5015113;28;20403;-29
2022/12/05 10:45:20;;;;;;;13.77;4.28;;;;;;;;;;5014688;28;20049;-29
2022/12/05 10:47:47;;;;;;;10.70;4.53;;;;;;;;;;5014806;28;20029;-32
2022/12/05 10:50:24;;;;;;;8.93;4.60;;;;;;;;;;4997392;28;20061;-30
2022/12/05 10:52:52;;;;;;;13.90;4.95;;;;;;;;;;5014570;28;20101;-29
2022/12/05 10:55:18;;;;;;;6.85;3.97;;;;;;;;;;4997225;28;20030;-29
2022/12/05 10:57:52;;;;;;;10.45;4.32;;;;;;;;;;5014923;28;20432;-30
2022/12/05 11:00:23;;;;;;;9.93;4.45;;;;;;;;;;5014648;28;20429;-29
2022/12/05 11:02:49;;;;;;;;;;;;;;;;;;5014581;28;20069;-29
2022/12/05 11:05:26;;;;;;;11.20;3.70;;;;;;;;;;5014360;28;20356;-30
2022/12/05 11:07:52;;;;;;;17.98;4.15;;;;;;;;;;5014822;28;20058;-30
2022/12/05 11:10:24;;;;;;;14.82;4.93;;;;;;;;;;5014705;28;20034;-29
2022/12/05 11:12:51;;;;;;;6.63;3.88;;;;;;;;;;4996897;28;20430;-30
2022/12/05 11:15:26;;;;;;;15.80;4.25;;;;;;;;;;4996984;28;20531;-29
2022/12/05 11:17:53;;;;;;;10.00;4.78;;;;;;;;;;4996864;28;20033;-29
2022/12/05 11:20:19;;;;;;;6.97;4.22;;;;;;;;;;5014270;28;20463;-29
2022/12/05 11:22:48;;;;;;;8.25;4.43;;;;;;;;;;4996896;28;20022;-29
2022/12/05 11:25:34;;;;;;;10.80;5.00;;;;;;;;;;5014374;28;20105;-30
2022/12/05 11:28:20;;;;;;;13.20;4.18;;;;;;;;;;5014905;28;20045;-30
2022/12/05 11:31:01;;;;;;;13.52;4.43;;;;;;;;;;4996827;28;20041;-30
2022/12/05 11:33:27;;;;;;;;;;;;;;;;;;5014586;28;20091;-30
2022/12/05 11:35:56;;;;;;;7.88;5.20;;;;;;;;;;5014440;28;20367;-29
2022/12/05 11:38:26;;;;;;;10.77;4.70;;;;;;;;;;4997220;28;20030;-30
2022/12/05 11:41:22;;;;;;;15.80;8.35;;;;;;;;;;5014413;28;20033;-30
2022/12/05 11:43:48;;;;;;;13.95;4.18;;;;;;;;;;5002035;28;20445;-29
2022/12/05 11:46:14;;;;;;;17.75;5.28;;;;;;;;;;5014388;28;20048;-30
2022/12/05 11:48:57;;;;;;;10.05;4.50;;;;;;;;;;5018056;28;20457;-30
2022/12/05 11:51:40;;;;;;;15.50;4.78;;;;;;;;;;5001430;28;20049;-30
2022/12/05 11:54:15;;;;;;;11.20;4.85;;;;;;;;;;5018303;28;20468;-30
2022/12/05 11:56:52;;;;;;;13.63;4.68;;;;;;;;;;5017865;28;20037;-30
2022/12/05 11:59:28;;;;;;;9.63;4.15;;;;;;;;;;5018643;28;20040;-30
2022/12/05 12:02:11;;;;;;;12.02;5.43;;;;;;;;;;5017960;28;20338;-30
2022/12/05 12:04:43;;;;;;;13.35;4.63;;;;;;;;;;5018188;28;20045;-30
2022/12/05 12:07:16;;;;;;;10.90;4.30;;;;;;;;;;5018151;28;20029;-29
2022/12/05 12:09:51;;;;;;;6.28;4.57;;;;;;;;;;5017734;28;20046;-30
2022/12/05 12:12:35;;;;;;;17.80;4.22;;;;;;;;;;5017616;28;20453;-30
2022/12/05 12:15:25;;;;;;;10.70;4.15;;;;;;;;;;5017576;28;20040;-29
2022/12/05 12:17:57;;;;;;;8.38;4.22;;;;;;;;;;5017664;28;20045;-30
2022/12/05 12:20:33;;;;;;;9.77;3.75;;;;;;;;;;5017877;28;20369;-30
2022/12/05 12:23:22;;;;;;;7.97;4.20;;;;;;;;;;5017731;28;20025;-30
2022/12/05 12:26:03;;;;;;;13.00;4.10;;;;;;;;;;5017837;28;20026;-30
2022/12/05 12:28:38;;;;;;;16.88;4.18;;;;;;;;;;5017647;28;20353;-29
2022/12/05 12:31:16;;;;;;;13.43;4.28;;;;;;;;;;5017256;28;20364;-30
2022/12/05 12:34:02;;;;;;;19.00;6.68;;;;;;;;;;5016993;28;20048;-29
2022/12/05 12:36:42;;;;;;;14.60;4.20;;;;;;;;;;5017167;28;20032;-30
2022/12/05 12:39:21;;;;;;;11.77;4.20;;;;;;;;;;4999698;28;20026;-30
2022/12/05 12:42:13;;;;;;;12.93;4.05;;;;;;;;;;5017644;28;20348;-30
2022/12/05 12:44:49;;;;;;;10.40;4.80;;;;;;;;;;5014051;28;20045;-30
2022/12/05 12:47:36;;;;;;;14.57;4.15;;;;;;;;;;5016720;28;20118;-30
2022/12/05 12:50:08;;;;;;;14.43;4.28;;;;;;;;;;5016649;28;20060;-30
2022/12/05 12:52:49;;;;;;;30.25;5.60;;;;;;;;;;5016469;28;20495;-41
2022/12/05 12:55:31;;;;;;;20.00;5.20;;;;;;;;;;5017218;28;20080;-29
2022/12/05 12:58:07;;;;;;;13.95;4.50;;;;;;;;;;5016278;28;20099;-30
2022/12/05 13:00:48;;;;;;;7.43;4.63;;;;;;;;;;5016735;28;20056;-30
2022/12/05 13:03:14;;;;;;;;;;;;;;;;;;4999219;28;20484;-28
2022/12/05 13:05:49;;;;;;;10.82;4.07;;;;;;;;;;5016431;28;19910;-29
2022/12/05 13:08:27;;;;;;;19.23;4.78;;;;;;;;;;5016822;28;20393;-29
2022/12/05 13:10:53;;;;;;;9.13;4.68;;;;;;;;;;4999297;28;20419;-29
2022/12/05 13:13:21;;;;;;;17.00;4.18;;;;;;;;;;5016759;28;20036;-29
2022/12/05 13:15:52;;;;;;;14.70;5.25;;;;;;;;;;5016335;28;20065;-29
2022/12/05 13:18:22;;;;;;;13.43;4.43;;;;;;;;;;4999650;28;20100;-28
2022/12/05 13:20:57;;;;;;;8.82;4.28;;;;;;;;;;5016548;28;20025;-28
2022/12/05 13:23:25;;;;;;;14.85;5.65;;;;;;;;;;5016141;28;20030;-29
2022/12/05 13:25:52;;;;;;;12.02;4.55;;;;;;;;;;5016228;28;20026;-29
2022/12/05 13:28:41;;;;;;;12.95;4.55;;;;;;;;;;5016179;28;20461;-29
2022/12/05 13:31:08;;;;;;;27.00;6.05;;;;;;;;;;5016132;28;20040;-29
2022/12/05 13:33:45;;;;;;;14.90;4.15;;;;;;;;;;5016013;28;20030;-29
2022/12/05 13:44:34;;;;;;;13.52;4.07;;;;;;;;;;5016490;28;20095;-29
2022/12/05 13:47:01;;;;;;;17.38;5.57;;;;;;;;;;5015950;28;20413;-29
2022/12/05 13:49:32;;;;;;;9.77;5.13;;;;;;;;;;5015905;28;20026;-30
2022/12/05 13:52:07;;;;;;;11.50;4.72;;;;;;;;;;5015806;28;20026;-28
2022/12/05 13:54:35;;;;;;;14.80;5.47;;;;;;;;;;5015995;28;20053;-29
2022/12/05 13:57:02;;;;;;;18.45;4.38;;;;;;;;;;5015599;28;20034;-29
2022/12/05 13:59:47;;;;;;;7.90;4.68;;;;;;;;;;5015565;28;20026;-29
2022/12/05 14:02:31;;;;;;;12.82;4.20;;;;;;;;;;5015231;28;20034;-29
2022/12/05 14:04:57;;;;;;;10.23;4.32;;;;;;;;;;5015482;28;20022;-29
2022/12/05 14:07:37;;;;;;;10.25;4.80;;;;;;;;;;5015432;28;20028;-29
2022/12/05 14:10:04;;;;;;;15.38;4.00;;;;;;;;;;5014856;28;20034;-28
2022/12/05 14:12:31;;;;;;;11.82;4.32;;;;;;;;;;5015009;28;20060;-29
2022/12/05 14:14:57;;;;;;;15.55;4.20;;;;;;;;;;5015488;28;20038;-29
2022/12/05 14:17:30;;;;;;;11.85;4.78;;;;;;;;;;4997849;28;20120;-29
2022/12/05 14:20:17;;;;;;;14.20;4.22;;;;;;;;;;5015183;28;20022;-29
2022/12/05 14:23:01;;;;;;;11.18;4.30;;;;;;;;;;5015394;28;20057;-28
2022/12/05 14:25:31;;;;;;;16.20;5.65;;;;;;;;;;5015199;28;20040;-28
2022/12/05 14:28:02;;;;;;;11.73;5.45;;;;;;;;;;5015338;28;20104;-29
2022/12/05 14:30:31;;;;;;;9.25;4.75;;;;;;;;;;5015175;28;20487;-29
2022/12/05 14:33:00;;;;;;;15.25;5.68;;;;;;;;;;5015351;28;20053;-30
2022/12/05 14:35:31;;;;;;;11.18;4.57;;;;;;;;;;5015003;28;20025;-29
2022/12/05 14:37:57;;;;;;;;;;;;;;;;;;5015751;28;20456;-29
2022/12/05 14:40:27;;;;;;;14.20;5.68;;;;;;;;;;5014894;28;19913;-28
2022/12/05 14:42:55;;;;;;;12.05;4.38;;;;;;;;;;5014766;28;20067;-29
2022/12/05 14:45:33;;;;;;;10.30;4.70;;;;;;;;;;5015020;28;20022;-28
2022/12/05 14:48:02;;;;;;;12.00;4.63;;;;;;;;;;5014960;28;20046;-29
2022/12/05 14:50:43;;;;;;;18.92;5.00;;;;;;;;;;5014687;28;20026;-29
2022/12/05 14:53:21;;;;;;;24.38;4.85;;;;;;;;;;5014835;28;20033;-28
2022/12/05 14:55:48;;;;;;;16.52;4.93;;;;;;;;;;5014496;28;20104;-29
2022/12/05 14:58:19;;;;;;;11.50;3.97;;;;;;;;;;5014844;28;20044;-28
2022/12/05 15:00:46;;;;;;;9.70;4.22;;;;;;;;;;5014702;28;20056;-29
2022/12/05 15:03:23;;;;;;;9.38;4.45;;;;;;;;;;5014139;28;20133;-29
2022/12/05 15:05:50;;;;;;;17.73;3.90;;;;;;;;;;4997361;28;20116;-29
2022/12/05 15:08:16;;;;;;;20.58;5.70;;;;;;;;;;5014473;28;20026;-29
2022/12/05 15:10:44;;;;;;;21.48;4.85;;;;;;;;;;5014456;28;20049;-29
2022/12/05 15:13:10;;;;;;;19.15;3.67;;;;;;;;;;5014443;28;20177;-29
2022/12/05 15:15:40;;;;;;;13.07;4.53;;;;;;;;;;5014406;28;20025;-29